sensor_id;sensor_type;location;lat;lon;timestamp;P1;durP1;ratioP1;P2;durP2;ratioP2
27161;SDS011;54464;50.558;9.704;2024-03-06T00:01:42;29.10;;;16.67;;
27161;SDS011;54464;50.558;9.704;2024-03-06T00:04:08;30.03;;;16.03;;
27161;SDS011;54464;50.558;9.704;2024-03-06T00:06:33;28.03;;;16.63;;
27161;SDS011;54464;50.558;9.704;2024-03-06T00:08:59;29.60;;;16.80;;
27161;SDS011;54464;50.558;9.704;2024-03-06T00:11:28;26.77;;;16.10;;
27161;SDS011;54464;50.558;9.704;2024-03-06T00:13:53;24.67;;;15.40;;
27161;SDS011;54464;50.558;9.704;2024-03-06T00:16:19;26.60;;;15.87;;
27161;SDS011;54464;50.558;9.704;2024-03-06T00:18:45;25.50;;;14.93;;
27161;SDS011;54464;50.558;9.704;2024-03-06T00:21:10;25.07;;;16.53;;
27161;SDS011;54464;50.558;9.704;2024-03-06T00:23:36;25.30;;;15.37;;
27161;SDS011;54464;50.558;9.704;2024-03-06T00:26:02;27.23;;;15.90;;
27161;SDS011;54464;50.558;9.704;2024-03-06T00:28:29;26.83;;;16.23;;
27161;SDS011;54464;50.558;9.704;2024-03-06T00:30:54;27.13;;;16.00;;
27161;SDS011;54464;50.558;9.704;2024-03-06T00:33:20;27.40;;;16.13;;
27161;SDS011;54464;50.558;9.704;2024-03-06T00:35:46;25.57;;;16.13;;
27161;SDS011;54464;50.558;9.704;2024-03-06T00:38:11;30.20;;;17.27;;
27161;SDS011;54464;50.558;9.704;2024-03-06T00:40:38;24.90;;;15.70;;
27161;SDS011;54464;50.558;9.704;2024-03-06T00:43:04;23.67;;;15.23;;
27161;SDS011;54464;50.558;9.704;2024-03-06T00:45:30;23.43;;;14.33;;
27161;SDS011;54464;50.558;9.704;2024-03-06T00:47:55;23.10;;;14.57;;
27161;SDS011;54464;50.558;9.704;2024-03-06T00:50:22;23.20;;;14.00;;
27161;SDS011;54464;50.558;9.704;2024-03-06T00:52:48;22.30;;;14.33;;
27161;SDS011;54464;50.558;9.704;2024-03-06T00:55:14;21.77;;;14.53;;
27161;SDS011;54464;50.558;9.704;2024-03-06T00:57:40;22.53;;;14.33;;
27161;SDS011;54464;50.558;9.704;2024-03-06T01:00:06;21.47;;;14.00;;
27161;SDS011;54464;50.558;9.704;2024-03-06T01:02:36;23.80;;;14.93;;
27161;SDS011;54464;50.558;9.704;2024-03-06T01:05:05;24.80;;;14.53;;
27161;SDS011;54464;50.558;9.704;2024-03-06T01:07:31;24.30;;;15.70;;
27161;SDS011;54464;50.558;9.704;2024-03-06T01:09:57;24.53;;;15.37;;
27161;SDS011;54464;50.558;9.704;2024-03-06T01:12:23;26.80;;;14.83;;
27161;SDS011;54464;50.558;9.704;2024-03-06T01:14:49;27.03;;;15.77;;
27161;SDS011;54464;50.558;9.704;2024-03-06T01:17:15;25.77;;;14.93;;
27161;SDS011;54464;50.558;9.704;2024-03-06T01:19:41;23.50;;;15.37;;
27161;SDS011;54464;50.558;9.704;2024-03-06T01:22:08;22.57;;;15.27;;
27161;SDS011;54464;50.558;9.704;2024-03-06T01:24:39;23.40;;;14.97;;
27161;SDS011;54464;50.558;9.704;2024-03-06T01:27:05;24.33;;;15.47;;
27161;SDS011;54464;50.558;9.704;2024-03-06T01:29:31;22.37;;;14.90;;
27161;SDS011;54464;50.558;9.704;2024-03-06T01:31:56;26.20;;;15.90;;
27161;SDS011;54464;50.558;9.704;2024-03-06T01:34:22;24.43;;;15.53;;
27161;SDS011;54464;50.558;9.704;2024-03-06T01:36:48;24.33;;;15.17;;
27161;SDS011;54464;50.558;9.704;2024-03-06T01:39:13;22.47;;;14.80;;
27161;SDS011;54464;50.558;9.704;2024-03-06T01:41:45;24.43;;;15.23;;
27161;SDS011;54464;50.558;9.704;2024-03-06T01:44:12;21.30;;;13.83;;
27161;SDS011;54464;50.558;9.704;2024-03-06T01:46:38;26.40;;;15.70;;
27161;SDS011;54464;50.558;9.704;2024-03-06T01:49:04;26.37;;;15.23;;
27161;SDS011;54464;50.558;9.704;2024-03-06T01:51:31;23.63;;;14.70;;
27161;SDS011;54464;50.558;9.704;2024-03-06T01:53:57;21.90;;;14.87;;
27161;SDS011;54464;50.558;9.704;2024-03-06T01:56:23;26.07;;;16.03;;
27161;SDS011;54464;50.558;9.704;2024-03-06T01:58:49;23.73;;;15.07;;
27161;SDS011;54464;50.558;9.704;2024-03-06T02:01:15;25.67;;;15.87;;
27161;SDS011;54464;50.558;9.704;2024-03-06T02:03:41;27.27;;;16.27;;
27161;SDS011;54464;50.558;9.704;2024-03-06T02:06:08;21.83;;;14.73;;
27161;SDS011;54464;50.558;9.704;2024-03-06T02:08:36;26.17;;;15.23;;
27161;SDS011;54464;50.558;9.704;2024-03-06T02:11:02;23.00;;;15.27;;
27161;SDS011;54464;50.558;9.704;2024-03-06T02:13:28;25.77;;;15.20;;
27161;SDS011;54464;50.558;9.704;2024-03-06T02:15:53;22.23;;;14.67;;
27161;SDS011;54464;50.558;9.704;2024-03-06T02:18:20;22.47;;;15.43;;
27161;SDS011;54464;50.558;9.704;2024-03-06T02:20:46;26.17;;;15.80;;
27161;SDS011;54464;50.558;9.704;2024-03-06T02:23:12;24.20;;;15.50;;
27161;SDS011;54464;50.558;9.704;2024-03-06T02:25:39;26.70;;;15.80;;
27161;SDS011;54464;50.558;9.704;2024-03-06T02:28:06;23.97;;;14.60;;
27161;SDS011;54464;50.558;9.704;2024-03-06T02:30:31;26.57;;;15.10;;
27161;SDS011;54464;50.558;9.704;2024-03-06T02:33:02;23.60;;;15.43;;
27161;SDS011;54464;50.558;9.704;2024-03-06T02:35:29;25.07;;;15.47;;
27161;SDS011;54464;50.558;9.704;2024-03-06T02:37:55;23.67;;;15.13;;
27161;SDS011;54464;50.558;9.704;2024-03-06T02:40:23;23.80;;;15.63;;
27161;SDS011;54464;50.558;9.704;2024-03-06T02:42:49;26.60;;;15.97;;
27161;SDS011;54464;50.558;9.704;2024-03-06T02:45:15;25.90;;;16.13;;
27161;SDS011;54464;50.558;9.704;2024-03-06T02:47:40;23.60;;;15.07;;
27161;SDS011;54464;50.558;9.704;2024-03-06T02:50:06;24.13;;;15.23;;
27161;SDS011;54464;50.558;9.704;2024-03-06T02:52:32;24.67;;;15.90;;
27161;SDS011;54464;50.558;9.704;2024-03-06T02:54:58;25.63;;;15.67;;
27161;SDS011;54464;50.558;9.704;2024-03-06T02:57:26;26.33;;;16.60;;
27161;SDS011;54464;50.558;9.704;2024-03-06T02:59:53;25.70;;;15.73;;
27161;SDS011;54464;50.558;9.704;2024-03-06T03:02:19;25.40;;;16.23;;
27161;SDS011;54464;50.558;9.704;2024-03-06T03:04:45;23.97;;;16.20;;
27161;SDS011;54464;50.558;9.704;2024-03-06T03:07:11;28.97;;;16.40;;
27161;SDS011;54464;50.558;9.704;2024-03-06T03:09:37;26.47;;;16.40;;
27161;SDS011;54464;50.558;9.704;2024-03-06T03:12:03;27.80;;;16.40;;
27161;SDS011;54464;50.558;9.704;2024-03-06T03:14:29;26.57;;;16.37;;
27161;SDS011;54464;50.558;9.704;2024-03-06T03:16:54;31.47;;;17.40;;
27161;SDS011;54464;50.558;9.704;2024-03-06T03:19:20;28.57;;;16.63;;
27161;SDS011;54464;50.558;9.704;2024-03-06T03:21:45;29.43;;;17.50;;
27161;SDS011;54464;50.558;9.704;2024-03-06T03:24:12;29.03;;;17.10;;
27161;SDS011;54464;50.558;9.704;2024-03-06T03:26:38;30.13;;;17.63;;
27161;SDS011;54464;50.558;9.704;2024-03-06T03:29:03;31.60;;;18.53;;
27161;SDS011;54464;50.558;9.704;2024-03-06T03:31:30;30.43;;;17.90;;
27161;SDS011;54464;50.558;9.704;2024-03-06T03:33:56;27.97;;;17.10;;
27161;SDS011;54464;50.558;9.704;2024-03-06T03:36:22;33.27;;;18.53;;
27161;SDS011;54464;50.558;9.704;2024-03-06T03:38:48;29.80;;;18.43;;
27161;SDS011;54464;50.558;9.704;2024-03-06T03:41:13;29.47;;;17.60;;
27161;SDS011;54464;50.558;9.704;2024-03-06T03:43:40;31.77;;;17.83;;
27161;SDS011;54464;50.558;9.704;2024-03-06T03:46:06;33.57;;;18.03;;
27161;SDS011;54464;50.558;9.704;2024-03-06T03:48:32;31.63;;;17.83;;
27161;SDS011;54464;50.558;9.704;2024-03-06T03:51:01;30.40;;;16.80;;
27161;SDS011;54464;50.558;9.704;2024-03-06T03:53:29;29.80;;;16.73;;
27161;SDS011;54464;50.558;9.704;2024-03-06T03:55:54;28.67;;;17.27;;
27161;SDS011;54464;50.558;9.704;2024-03-06T03:58:20;32.30;;;18.73;;
27161;SDS011;54464;50.558;9.704;2024-03-06T04:00:46;31.50;;;18.20;;
27161;SDS011;54464;50.558;9.704;2024-03-06T04:03:12;32.00;;;19.47;;
27161;SDS011;54464;50.558;9.704;2024-03-06T04:05:37;35.13;;;19.03;;
27161;SDS011;54464;50.558;9.704;2024-03-06T04:08:03;32.50;;;18.87;;
27161;SDS011;54464;50.558;9.704;2024-03-06T04:10:31;34.43;;;19.33;;
27161;SDS011;54464;50.558;9.704;2024-03-06T04:12:57;31.93;;;18.33;;
27161;SDS011;54464;50.558;9.704;2024-03-06T04:15:25;35.23;;;18.40;;
27161;SDS011;54464;50.558;9.704;2024-03-06T04:17:50;33.57;;;18.20;;
27161;SDS011;54464;50.558;9.704;2024-03-06T04:20:17;33.43;;;18.17;;
27161;SDS011;54464;50.558;9.704;2024-03-06T04:22:43;32.97;;;18.23;;
27161;SDS011;54464;50.558;9.704;2024-03-06T04:25:11;33.97;;;17.53;;
27161;SDS011;54464;50.558;9.704;2024-03-06T04:27:36;30.23;;;17.00;;
27161;SDS011;54464;50.558;9.704;2024-03-06T04:30:02;30.70;;;17.20;;
27161;SDS011;54464;50.558;9.704;2024-03-06T04:32:29;31.23;;;17.93;;
27161;SDS011;54464;50.558;9.704;2024-03-06T04:34:54;34.10;;;18.60;;
27161;SDS011;54464;50.558;9.704;2024-03-06T04:37:21;36.73;;;19.83;;
27161;SDS011;54464;50.558;9.704;2024-03-06T04:39:46;40.57;;;20.40;;
27161;SDS011;54464;50.558;9.704;2024-03-06T04:42:13;41.97;;;20.93;;
27161;SDS011;54464;50.558;9.704;2024-03-06T04:44:38;42.13;;;22.57;;
27161;SDS011;54464;50.558;9.704;2024-03-06T04:47:04;43.07;;;22.33;;
27161;SDS011;54464;50.558;9.704;2024-03-06T04:49:33;44.07;;;23.43;;
27161;SDS011;54464;50.558;9.704;2024-03-06T04:51:59;43.87;;;23.27;;
27161;SDS011;54464;50.558;9.704;2024-03-06T04:54:25;43.23;;;23.40;;
27161;SDS011;54464;50.558;9.704;2024-03-06T04:56:51;39.83;;;21.50;;
27161;SDS011;54464;50.558;9.704;2024-03-06T04:59:16;39.70;;;21.60;;
27161;SDS011;54464;50.558;9.704;2024-03-06T05:01:42;38.73;;;21.40;;
27161;SDS011;54464;50.558;9.704;2024-03-06T05:04:09;39.77;;;20.73;;
27161;SDS011;54464;50.558;9.704;2024-03-06T05:06:35;42.83;;;22.37;;
27161;SDS011;54464;50.558;9.704;2024-03-06T05:09:03;40.23;;;22.33;;
27161;SDS011;54464;50.558;9.704;2024-03-06T05:11:30;39.20;;;21.50;;
27161;SDS011;54464;50.558;9.704;2024-03-06T05:13:58;39.47;;;21.97;;
27161;SDS011;54464;50.558;9.704;2024-03-06T05:16:26;38.67;;;22.03;;
27161;SDS011;54464;50.558;9.704;2024-03-06T05:18:52;40.80;;;22.27;;
27161;SDS011;54464;50.558;9.704;2024-03-06T05:21:18;38.97;;;21.23;;
27161;SDS011;54464;50.558;9.704;2024-03-06T05:23:44;41.67;;;22.83;;
27161;SDS011;54464;50.558;9.704;2024-03-06T05:26:10;43.17;;;22.73;;
27161;SDS011;54464;50.558;9.704;2024-03-06T05:28:36;40.00;;;22.63;;
27161;SDS011;54464;50.558;9.704;2024-03-06T05:31:13;45.53;;;23.77;;
27161;SDS011;54464;50.558;9.704;2024-03-06T05:33:46;47.30;;;23.83;;
27161;SDS011;54464;50.558;9.704;2024-03-06T05:36:12;45.53;;;24.50;;
27161;SDS011;54464;50.558;9.704;2024-03-06T05:38:38;41.70;;;22.53;;
27161;SDS011;54464;50.558;9.704;2024-03-06T05:41:04;41.83;;;23.43;;
27161;SDS011;54464;50.558;9.704;2024-03-06T05:43:29;40.67;;;22.83;;
27161;SDS011;54464;50.558;9.704;2024-03-06T05:45:55;38.17;;;21.43;;
27161;SDS011;54464;50.558;9.704;2024-03-06T05:48:20;52.73;;;25.40;;
27161;SDS011;54464;50.558;9.704;2024-03-06T05:50:46;49.23;;;25.80;;
27161;SDS011;54464;50.558;9.704;2024-03-06T05:53:11;48.97;;;25.30;;
27161;SDS011;54464;50.558;9.704;2024-03-06T05:55:37;48.63;;;25.33;;
27161;SDS011;54464;50.558;9.704;2024-03-06T05:58:03;43.83;;;24.83;;
27161;SDS011;54464;50.558;9.704;2024-03-06T06:00:30;44.13;;;24.13;;
27161;SDS011;54464;50.558;9.704;2024-03-06T06:02:56;38.10;;;21.43;;
27161;SDS011;54464;50.558;9.704;2024-03-06T06:05:21;38.00;;;21.57;;
27161;SDS011;54464;50.558;9.704;2024-03-06T06:07:48;33.67;;;19.97;;
27161;SDS011;54464;50.558;9.704;2024-03-06T06:10:14;35.73;;;19.97;;
27161;SDS011;54464;50.558;9.704;2024-03-06T06:12:39;33.33;;;18.60;;
27161;SDS011;54464;50.558;9.704;2024-03-06T06:15:06;34.17;;;19.60;;
27161;SDS011;54464;50.558;9.704;2024-03-06T06:17:32;35.47;;;19.60;;
27161;SDS011;54464;50.558;9.704;2024-03-06T06:19:58;39.90;;;21.47;;
27161;SDS011;54464;50.558;9.704;2024-03-06T06:22:27;36.30;;;20.80;;
27161;SDS011;54464;50.558;9.704;2024-03-06T06:24:52;35.63;;;20.57;;
27161;SDS011;54464;50.558;9.704;2024-03-06T06:27:21;38.73;;;22.33;;
27161;SDS011;54464;50.558;9.704;2024-03-06T06:29:46;39.63;;;22.63;;
27161;SDS011;54464;50.558;9.704;2024-03-06T06:32:12;44.37;;;23.53;;
27161;SDS011;54464;50.558;9.704;2024-03-06T06:34:38;43.70;;;23.40;;
27161;SDS011;54464;50.558;9.704;2024-03-06T06:37:06;43.73;;;24.33;;
27161;SDS011;54464;50.558;9.704;2024-03-06T06:39:32;45.23;;;25.43;;
27161;SDS011;54464;50.558;9.704;2024-03-06T06:41:59;44.30;;;24.17;;
27161;SDS011;54464;50.558;9.704;2024-03-06T06:44:25;46.27;;;25.83;;
27161;SDS011;54464;50.558;9.704;2024-03-06T06:46:52;51.30;;;26.93;;
27161;SDS011;54464;50.558;9.704;2024-03-06T06:49:18;45.07;;;25.40;;
27161;SDS011;54464;50.558;9.704;2024-03-06T06:51:45;43.97;;;25.03;;
27161;SDS011;54464;50.558;9.704;2024-03-06T06:54:11;42.90;;;25.00;;
27161;SDS011;54464;50.558;9.704;2024-03-06T06:56:38;41.00;;;23.67;;
27161;SDS011;54464;50.558;9.704;2024-03-06T06:59:03;47.07;;;26.00;;
27161;SDS011;54464;50.558;9.704;2024-03-06T07:01:29;43.03;;;25.53;;
27161;SDS011;54464;50.558;9.704;2024-03-06T07:03:54;43.50;;;24.03;;
27161;SDS011;54464;50.558;9.704;2024-03-06T07:06:20;41.20;;;24.20;;
27161;SDS011;54464;50.558;9.704;2024-03-06T07:08:46;38.83;;;22.90;;
27161;SDS011;54464;50.558;9.704;2024-03-06T07:11:12;39.57;;;23.63;;
27161;SDS011;54464;50.558;9.704;2024-03-06T07:13:39;38.67;;;22.97;;
27161;SDS011;54464;50.558;9.704;2024-03-06T07:16:04;34.77;;;21.83;;
27161;SDS011;54464;50.558;9.704;2024-03-06T07:18:31;39.33;;;22.63;;
27161;SDS011;54464;50.558;9.704;2024-03-06T07:20:57;34.50;;;21.63;;
27161;SDS011;54464;50.558;9.704;2024-03-06T07:23:22;37.20;;;22.57;;
27161;SDS011;54464;50.558;9.704;2024-03-06T07:25:48;35.43;;;21.60;;
27161;SDS011;54464;50.558;9.704;2024-03-06T07:28:13;32.33;;;21.93;;
27161;SDS011;54464;50.558;9.704;2024-03-06T07:30:39;36.43;;;22.30;;
27161;SDS011;54464;50.558;9.704;2024-03-06T07:33:06;34.33;;;21.70;;
27161;SDS011;54464;50.558;9.704;2024-03-06T07:35:32;33.17;;;20.97;;
27161;SDS011;54464;50.558;9.704;2024-03-06T07:37:58;32.37;;;20.90;;
27161;SDS011;54464;50.558;9.704;2024-03-06T07:40:24;30.93;;;20.23;;
27161;SDS011;54464;50.558;9.704;2024-03-06T07:42:50;36.23;;;21.67;;
27161;SDS011;54464;50.558;9.704;2024-03-06T07:45:16;32.73;;;20.87;;
27161;SDS011;54464;50.558;9.704;2024-03-06T07:47:41;31.43;;;20.77;;
27161;SDS011;54464;50.558;9.704;2024-03-06T07:50:07;32.53;;;21.13;;
27161;SDS011;54464;50.558;9.704;2024-03-06T07:52:33;35.00;;;21.30;;
27161;SDS011;54464;50.558;9.704;2024-03-06T07:55:00;34.73;;;22.43;;
27161;SDS011;54464;50.558;9.704;2024-03-06T07:57:26;33.57;;;20.90;;
27161;SDS011;54464;50.558;9.704;2024-03-06T07:59:51;34.97;;;21.53;;
27161;SDS011;54464;50.558;9.704;2024-03-06T08:02:19;33.43;;;21.00;;
27161;SDS011;54464;50.558;9.704;2024-03-06T08:04:47;34.63;;;20.83;;
27161;SDS011;54464;50.558;9.704;2024-03-06T08:07:13;35.47;;;21.17;;
27161;SDS011;54464;50.558;9.704;2024-03-06T08:09:39;33.93;;;20.63;;
27161;SDS011;54464;50.558;9.704;2024-03-06T08:12:05;33.17;;;20.93;;
27161;SDS011;54464;50.558;9.704;2024-03-06T08:14:31;32.63;;;19.83;;
27161;SDS011;54464;50.558;9.704;2024-03-06T08:16:56;35.73;;;21.67;;
27161;SDS011;54464;50.558;9.704;2024-03-06T08:19:22;33.90;;;20.57;;
27161;SDS011;54464;50.558;9.704;2024-03-06T08:21:49;36.70;;;21.90;;
27161;SDS011;54464;50.558;9.704;2024-03-06T08:24:15;33.37;;;21.80;;
27161;SDS011;54464;50.558;9.704;2024-03-06T08:26:42;32.20;;;20.53;;
27161;SDS011;54464;50.558;9.704;2024-03-06T08:29:07;35.77;;;21.80;;
27161;SDS011;54464;50.558;9.704;2024-03-06T08:31:33;33.40;;;22.00;;
27161;SDS011;54464;50.558;9.704;2024-03-06T08:33:59;34.73;;;21.47;;
27161;SDS011;54464;50.558;9.704;2024-03-06T08:36:24;34.13;;;21.87;;
27161;SDS011;54464;50.558;9.704;2024-03-06T08:38:50;36.70;;;23.33;;
27161;SDS011;54464;50.558;9.704;2024-03-06T08:41:16;35.03;;;22.90;;
27161;SDS011;54464;50.558;9.704;2024-03-06T08:43:41;37.13;;;23.90;;
27161;SDS011;54464;50.558;9.704;2024-03-06T08:46:07;40.30;;;23.97;;
27161;SDS011;54464;50.558;9.704;2024-03-06T08:48:33;37.07;;;23.37;;
27161;SDS011;54464;50.558;9.704;2024-03-06T08:50:58;37.93;;;23.03;;
27161;SDS011;54464;50.558;9.704;2024-03-06T08:53:24;36.30;;;23.43;;
27161;SDS011;54464;50.558;9.704;2024-03-06T08:55:49;36.77;;;23.20;;
27161;SDS011;54464;50.558;9.704;2024-03-06T08:58:15;32.30;;;21.43;;
27161;SDS011;54464;50.558;9.704;2024-03-06T09:00:40;32.33;;;21.00;;
27161;SDS011;54464;50.558;9.704;2024-03-06T09:03:06;35.20;;;22.60;;
27161;SDS011;54464;50.558;9.704;2024-03-06T09:05:32;34.07;;;23.40;;
27161;SDS011;54464;50.558;9.704;2024-03-06T09:07:57;36.63;;;23.07;;
27161;SDS011;54464;50.558;9.704;2024-03-06T09:10:23;35.90;;;23.13;;
27161;SDS011;54464;50.558;9.704;2024-03-06T09:12:49;34.93;;;22.80;;
27161;SDS011;54464;50.558;9.704;2024-03-06T09:15:15;35.53;;;22.40;;
27161;SDS011;54464;50.558;9.704;2024-03-06T09:17:41;36.23;;;23.07;;
27161;SDS011;54464;50.558;9.704;2024-03-06T09:20:07;34.33;;;23.03;;
27161;SDS011;54464;50.558;9.704;2024-03-06T09:22:40;33.03;;;22.00;;
27161;SDS011;54464;50.558;9.704;2024-03-06T09:25:06;32.33;;;22.70;;
27161;SDS011;54464;50.558;9.704;2024-03-06T09:27:32;33.13;;;22.70;;
27161;SDS011;54464;50.558;9.704;2024-03-06T09:29:58;37.03;;;23.40;;
27161;SDS011;54464;50.558;9.704;2024-03-06T09:32:24;36.67;;;23.87;;
27161;SDS011;54464;50.558;9.704;2024-03-06T09:34:51;34.67;;;23.70;;
27161;SDS011;54464;50.558;9.704;2024-03-06T09:37:17;37.03;;;24.33;;
27161;SDS011;54464;50.558;9.704;2024-03-06T09:39:43;39.00;;;25.43;;
27161;SDS011;54464;50.558;9.704;2024-03-06T09:42:12;37.40;;;24.30;;
27161;SDS011;54464;50.558;9.704;2024-03-06T09:44:39;37.27;;;24.83;;
27161;SDS011;54464;50.558;9.704;2024-03-06T09:47:04;36.07;;;24.90;;
27161;SDS011;54464;50.558;9.704;2024-03-06T09:49:32;41.23;;;25.70;;
27161;SDS011;54464;50.558;9.704;2024-03-06T09:51:59;37.97;;;24.37;;
27161;SDS011;54464;50.558;9.704;2024-03-06T09:54:26;37.87;;;23.83;;
27161;SDS011;54464;50.558;9.704;2024-03-06T09:56:54;36.53;;;24.67;;
27161;SDS011;54464;50.558;9.704;2024-03-06T09:59:22;34.63;;;23.47;;
27161;SDS011;54464;50.558;9.704;2024-03-06T10:04:26;39.17;;;24.47;;
27161;SDS011;54464;50.558;9.704;2024-03-06T10:06:58;37.80;;;25.03;;
27161;SDS011;54464;50.558;9.704;2024-03-06T10:09:25;37.33;;;24.53;;
27161;SDS011;54464;50.558;9.704;2024-03-06T10:11:52;39.37;;;25.70;;
27161;SDS011;54464;50.558;9.704;2024-03-06T10:14:18;41.90;;;26.40;;
27161;SDS011;54464;50.558;9.704;2024-03-06T10:16:54;40.93;;;25.77;;
27161;SDS011;54464;50.558;9.704;2024-03-06T10:19:23;38.00;;;25.17;;
27161;SDS011;54464;50.558;9.704;2024-03-06T10:21:52;37.30;;;24.83;;
27161;SDS011;54464;50.558;9.704;2024-03-06T10:24:19;33.57;;;22.27;;
27161;SDS011;54464;50.558;9.704;2024-03-06T10:26:45;30.00;;;21.20;;
27161;SDS011;54464;50.558;9.704;2024-03-06T10:29:14;32.60;;;21.60;;
27161;SDS011;54464;50.558;9.704;2024-03-06T10:31:46;33.37;;;21.63;;
27161;SDS011;54464;50.558;9.704;2024-03-06T10:34:25;32.37;;;20.97;;
27161;SDS011;54464;50.558;9.704;2024-03-06T10:39:20;30.73;;;20.47;;
27161;SDS011;54464;50.558;9.704;2024-03-06T10:41:47;30.10;;;19.30;;
27161;SDS011;54464;50.558;9.704;2024-03-06T10:44:24;28.90;;;20.20;;
27161;SDS011;54464;50.558;9.704;2024-03-06T10:47:05;28.80;;;19.73;;
27161;SDS011;54464;50.558;9.704;2024-03-06T10:49:34;31.17;;;20.77;;
27161;SDS011;54464;50.558;9.704;2024-03-06T10:52:03;30.57;;;20.30;;
27161;SDS011;54464;50.558;9.704;2024-03-06T10:54:32;28.63;;;19.60;;
27161;SDS011;54464;50.558;9.704;2024-03-06T10:57:04;30.83;;;21.33;;
27161;SDS011;54464;50.558;9.704;2024-03-06T10:59:30;28.63;;;18.97;;
27161;SDS011;54464;50.558;9.704;2024-03-06T11:01:56;28.83;;;20.10;;
27161;SDS011;54464;50.558;9.704;2024-03-06T11:04:23;28.87;;;20.00;;
27161;SDS011;54464;50.558;9.704;2024-03-06T11:06:53;32.27;;;21.37;;
27161;SDS011;54464;50.558;9.704;2024-03-06T11:09:19;34.27;;;22.97;;
27161;SDS011;54464;50.558;9.704;2024-03-06T11:11:49;34.13;;;22.37;;
27161;SDS011;54464;50.558;9.704;2024-03-06T11:14:16;32.57;;;22.57;;
27161;SDS011;54464;50.558;9.704;2024-03-06T11:19:22;29.60;;;19.77;;
27161;SDS011;54464;50.558;9.704;2024-03-06T11:21:48;30.97;;;19.67;;
27161;SDS011;54464;50.558;9.704;2024-03-06T11:24:15;32.80;;;20.73;;
27161;SDS011;54464;50.558;9.704;2024-03-06T11:26:46;30.23;;;21.37;;
27161;SDS011;54464;50.558;9.704;2024-03-06T11:29:15;31.33;;;21.50;;
27161;SDS011;54464;50.558;9.704;2024-03-06T11:32:02;33.57;;;21.47;;
27161;SDS011;54464;50.558;9.704;2024-03-06T11:34:35;32.50;;;20.27;;
27161;SDS011;54464;50.558;9.704;2024-03-06T11:37:05;29.30;;;19.90;;
27161;SDS011;54464;50.558;9.704;2024-03-06T11:39:35;28.23;;;18.73;;
27161;SDS011;54464;50.558;9.704;2024-03-06T11:42:02;26.53;;;18.80;;
27161;SDS011;54464;50.558;9.704;2024-03-06T11:44:29;26.40;;;18.20;;
27161;SDS011;54464;50.558;9.704;2024-03-06T11:49:25;28.03;;;19.10;;
27161;SDS011;54464;50.558;9.704;2024-03-06T11:51:57;29.00;;;19.83;;
27161;SDS011;54464;50.558;9.704;2024-03-06T11:54:25;26.60;;;18.80;;
27161;SDS011;54464;50.558;9.704;2024-03-06T11:56:53;32.50;;;21.23;;
27161;SDS011;54464;50.558;9.704;2024-03-06T11:59:23;29.07;;;20.87;;
27161;SDS011;54464;50.558;9.704;2024-03-06T12:01:53;28.20;;;20.67;;
27161;SDS011;54464;50.558;9.704;2024-03-06T12:04:22;29.40;;;20.27;;
27161;SDS011;54464;50.558;9.704;2024-03-06T14:48:17;39.53;;;25.10;;
27161;SDS011;54464;50.558;9.704;2024-03-06T14:50:44;36.97;;;25.17;;
27161;SDS011;54464;50.558;9.704;2024-03-06T15:40:44;35.30;;;24.20;;
27161;SDS011;54464;50.558;9.704;2024-03-06T15:43:11;35.37;;;24.27;;
27161;SDS011;54464;50.558;9.704;2024-03-06T15:45:37;33.87;;;24.17;;
27161;SDS011;54464;50.558;9.704;2024-03-06T15:48:03;35.37;;;24.37;;
27161;SDS011;54464;50.558;9.704;2024-03-06T15:50:28;35.77;;;24.20;;
27161;SDS011;54464;50.558;9.704;2024-03-06T15:52:54;36.57;;;23.57;;
27161;SDS011;54464;50.558;9.704;2024-03-06T15:55:20;32.00;;;23.77;;
27161;SDS011;54464;50.558;9.704;2024-03-06T15:57:45;34.50;;;23.60;;
27161;SDS011;54464;50.558;9.704;2024-03-06T16:00:11;32.00;;;22.83;;
27161;SDS011;54464;50.558;9.704;2024-03-06T16:02:40;31.70;;;21.97;;
27161;SDS011;54464;50.558;9.704;2024-03-06T16:05:06;33.33;;;22.10;;
27161;SDS011;54464;50.558;9.704;2024-03-06T16:07:33;30.13;;;21.23;;
27161;SDS011;54464;50.558;9.704;2024-03-06T16:09:59;31.77;;;22.07;;
27161;SDS011;54464;50.558;9.704;2024-03-06T16:12:24;32.47;;;22.03;;
27161;SDS011;54464;50.558;9.704;2024-03-06T16:14:50;31.80;;;22.17;;
27161;SDS011;54464;50.558;9.704;2024-03-06T16:17:15;29.07;;;21.37;;
27161;SDS011;54464;50.558;9.704;2024-03-06T16:19:41;33.53;;;22.57;;
27161;SDS011;54464;50.558;9.704;2024-03-06T16:22:07;28.57;;;20.93;;
27161;SDS011;54464;50.558;9.704;2024-03-06T16:24:32;29.83;;;21.50;;
27161;SDS011;54464;50.558;9.704;2024-03-06T16:26:58;32.97;;;22.30;;
27161;SDS011;54464;50.558;9.704;2024-03-06T16:29:24;31.80;;;21.87;;
27161;SDS011;54464;50.558;9.704;2024-03-06T16:31:49;32.00;;;21.77;;
27161;SDS011;54464;50.558;9.704;2024-03-06T16:34:15;31.10;;;21.83;;
27161;SDS011;54464;50.558;9.704;2024-03-06T16:36:43;29.73;;;20.73;;
27161;SDS011;54464;50.558;9.704;2024-03-06T16:39:08;28.13;;;21.03;;
27161;SDS011;54464;50.558;9.704;2024-03-06T16:41:34;29.97;;;21.27;;
27161;SDS011;54464;50.558;9.704;2024-03-06T16:44:00;29.37;;;21.07;;
27161;SDS011;54464;50.558;9.704;2024-03-06T16:46:26;26.63;;;20.87;;
27161;SDS011;54464;50.558;9.704;2024-03-06T16:48:54;28.37;;;20.93;;
27161;SDS011;54464;50.558;9.704;2024-03-06T16:51:20;32.40;;;20.40;;
27161;SDS011;54464;50.558;9.704;2024-03-06T17:18:18;30.10;;;20.77;;
27161;SDS011;54464;50.558;9.704;2024-03-06T17:20:44;33.17;;;21.40;;
27161;SDS011;54464;50.558;9.704;2024-03-06T18:07:11;26.77;;;19.03;;
27161;SDS011;54464;50.558;9.704;2024-03-06T18:09:38;28.53;;;19.87;;
27161;SDS011;54464;50.558;9.704;2024-03-06T18:12:03;28.10;;;19.53;;
27161;SDS011;54464;50.558;9.704;2024-03-06T18:14:29;30.00;;;19.90;;
27161;SDS011;54464;50.558;9.704;2024-03-06T18:17:18;29.00;;;19.50;;
27161;SDS011;54464;50.558;9.704;2024-03-06T18:19:46;30.03;;;20.83;;
27161;SDS011;54464;50.558;9.704;2024-03-06T18:22:11;29.43;;;20.67;;
27161;SDS011;54464;50.558;9.704;2024-03-06T18:24:39;29.83;;;20.10;;
27161;SDS011;54464;50.558;9.704;2024-03-06T18:27:05;29.50;;;20.63;;
27161;SDS011;54464;50.558;9.704;2024-03-06T18:29:31;29.80;;;20.33;;
27161;SDS011;54464;50.558;9.704;2024-03-06T18:31:58;27.97;;;19.87;;
27161;SDS011;54464;50.558;9.704;2024-03-06T18:34:24;28.93;;;19.60;;
27161;SDS011;54464;50.558;9.704;2024-03-06T18:36:50;28.63;;;19.90;;
27161;SDS011;54464;50.558;9.704;2024-03-06T18:39:16;26.20;;;20.23;;
27161;SDS011;54464;50.558;9.704;2024-03-06T18:41:43;29.77;;;21.00;;
27161;SDS011;54464;50.558;9.704;2024-03-06T18:44:15;27.70;;;19.90;;
27161;SDS011;54464;50.558;9.704;2024-03-06T18:47:16;27.83;;;20.43;;
27161;SDS011;54464;50.558;9.704;2024-03-06T18:49:42;30.50;;;20.10;;
27161;SDS011;54464;50.558;9.704;2024-03-06T18:52:07;30.03;;;20.73;;
27161;SDS011;54464;50.558;9.704;2024-03-06T18:54:33;29.50;;;22.10;;
27161;SDS011;54464;50.558;9.704;2024-03-06T18:56:59;28.43;;;20.33;;
27161;SDS011;54464;50.558;9.704;2024-03-06T18:59:26;27.43;;;19.33;;
27161;SDS011;54464;50.558;9.704;2024-03-06T19:01:52;25.30;;;18.40;;
27161;SDS011;54464;50.558;9.704;2024-03-06T19:04:17;27.97;;;20.00;;
27161;SDS011;54464;50.558;9.704;2024-03-06T19:06:48;29.10;;;20.73;;